sensor_id;sensor_type;location;lat;lon;timestamp;pressure;altitude;pressure_sealevel;temperature;humidity
62680;BME280;68213;40.528;44.712;2023-05-27T00:00:19;80528.75;;;7.68;64.86
62680;BME280;68213;40.528;44.712;2023-05-27T00:01:20;80532.16;;;7.70;64.95
62680;BME280;68213;40.528;44.712;2023-05-27T00:02:20;80530.94;;;7.71;64.86
62680;BME280;68213;40.528;44.712;2023-05-27T00:03:21;80525.88;;;7.63;64.55
62680;BME280;68213;40.528;44.712;2023-05-27T00:04:22;80501.56;;;7.51;65.06
62680;BME280;68213;40.528;44.712;2023-05-27T00:05:23;80527.50;;;7.69;65.14
62680;BME280;68213;40.528;44.712;2023-05-27T00:06:23;80536.31;;;7.63;65.54
62680;BME280;68213;40.528;44.712;2023-05-27T00:07:24;80521.41;;;7.54;65.81
62680;BME280;68213;40.528;44.712;2023-05-27T00:08:25;80530.03;;;7.57;65.67
62680;BME280;68213;40.528;44.712;2023-05-27T00:09:25;80531.97;;;7.56;65.74
62680;BME280;68213;40.528;44.712;2023-05-27T00:10:29;80531.41;;;7.58;65.73
62680;BME280;68213;40.528;44.712;2023-05-27T00:11:30;80503.19;;;7.35;65.83
62680;BME280;68213;40.528;44.712;2023-05-27T00:12:31;80531.97;;;7.56;65.59
62680;BME280;68213;40.528;44.712;2023-05-27T00:13:31;80533.78;;;7.54;65.78
62680;BME280;68213;40.528;44.712;2023-05-27T00:14:32;80527.88;;;7.53;65.29
62680;BME280;68213;40.528;44.712;2023-05-27T00:15:33;80532.78;;;7.59;65.32
62680;BME280;68213;40.528;44.712;2023-05-27T00:16:33;80531.59;;;7.50;66.81
62680;BME280;68213;40.528;44.712;2023-05-27T00:17:36;80537.06;;;7.33;67.67
62680;BME280;68213;40.528;44.712;2023-05-27T00:18:39;80540.66;;;7.27;67.78
62680;BME280;68213;40.528;44.712;2023-05-27T00:19:41;80540.03;;;7.17;68.05
62680;BME280;68213;40.528;44.712;2023-05-27T00:20:48;80539.63;;;7.11;68.12
62680;BME280;68213;40.528;44.712;2023-05-27T00:21:51;80537.56;;;7.09;68.43
62680;BME280;68213;40.528;44.712;2023-05-27T00:22:55;80536.88;;;7.09;68.60
62680;BME280;68213;40.528;44.712;2023-05-27T00:23:57;80530.56;;;7.02;68.68
62680;BME280;68213;40.528;44.712;2023-05-27T00:24:57;80540.72;;;7.08;68.34
62680;BME280;68213;40.528;44.712;2023-05-27T00:25:58;80532.63;;;7.04;68.78
62680;BME280;68213;40.528;44.712;2023-05-27T00:26:59;80526.16;;;7.05;68.51
62680;BME280;68213;40.528;44.712;2023-05-27T00:28:00;80530.44;;;7.00;68.71
62680;BME280;68213;40.528;44.712;2023-05-27T00:29:01;80510.56;;;6.85;68.61
62680;BME280;68213;40.528;44.712;2023-05-27T00:30:02;80527.41;;;7.04;68.19
62680;BME280;68213;40.528;44.712;2023-05-27T00:31:04;80522.44;;;7.08;67.55
62680;BME280;68213;40.528;44.712;2023-05-27T00:32:04;80521.50;;;7.03;68.11
62680;BME280;68213;40.528;44.712;2023-05-27T00:33:09;80527.28;;;7.02;68.75
62680;BME280;68213;40.528;44.712;2023-05-27T00:34:09;80503.09;;;6.91;67.91
62680;BME280;68213;40.528;44.712;2023-05-27T00:35:10;80518.72;;;7.11;67.84
62680;BME280;68213;40.528;44.712;2023-05-27T00:36:11;80508.22;;;7.21;67.07
62680;BME280;68213;40.528;44.712;2023-05-27T00:37:11;80514.38;;;7.25;67.38
62680;BME280;68213;40.528;44.712;2023-05-27T00:38:14;80489.91;;;6.89;68.23
62680;BME280;68213;40.528;44.712;2023-05-27T00:39:14;80513.59;;;7.13;68.45
62680;BME280;68213;40.528;44.712;2023-05-27T00:40:20;80515.13;;;7.16;67.78
62680;BME280;68213;40.528;44.712;2023-05-27T00:41:24;80515.13;;;7.16;67.49
62680;BME280;68213;40.528;44.712;2023-05-27T00:42:26;80521.81;;;7.29;66.87
62680;BME280;68213;40.528;44.712;2023-05-27T00:43:27;80510.91;;;7.33;67.20
62680;BME280;68213;40.528;44.712;2023-05-27T00:44:28;80505.72;;;7.23;67.02
62680;BME280;68213;40.528;44.712;2023-05-27T00:45:28;80519.00;;;7.37;66.83
62680;BME280;68213;40.528;44.712;2023-05-27T00:46:31;80487.16;;;7.19;66.63
62680;BME280;68213;40.528;44.712;2023-05-27T00:47:32;80516.91;;;7.45;66.56
62680;BME280;68213;40.528;44.712;2023-05-27T00:48:33;80511.91;;;7.49;66.24
62680;BME280;68213;40.528;44.712;2023-05-27T00:49:34;80486.00;;;7.32;65.82
62680;BME280;68213;40.528;44.712;2023-05-27T00:50:35;80508.31;;;7.54;65.88
62680;BME280;68213;40.528;44.712;2023-05-27T00:51:36;80515.03;;;7.57;66.19
62680;BME280;68213;40.528;44.712;2023-05-27T00:52:37;80519.16;;;7.60;65.89
62680;BME280;68213;40.528;44.712;2023-05-27T00:53:42;80520.16;;;7.55;66.47
62680;BME280;68213;40.528;44.712;2023-05-27T00:54:45;80518.06;;;7.54;66.49
62680;BME280;68213;40.528;44.712;2023-05-27T00:55:48;80522.50;;;7.51;67.01
62680;BME280;68213;40.528;44.712;2023-05-27T00:56:51;80520.06;;;7.43;66.69
62680;BME280;68213;40.528;44.712;2023-05-27T00:57:52;80523.06;;;7.50;66.14
62680;BME280;68213;40.528;44.712;2023-05-27T00:58:55;80521.22;;;7.30;68.65
62680;BME280;68213;40.528;44.712;2023-05-27T00:59:55;80513.41;;;7.30;67.95
62680;BME280;68213;40.528;44.712;2023-05-27T01:00:56;80513.13;;;7.26;68.06
62680;BME280;68213;40.528;44.712;2023-05-27T01:01:57;80521.81;;;7.29;67.74
62680;BME280;68213;40.528;44.712;2023-05-27T01:02:58;80519.22;;;7.19;67.99
62680;BME280;68213;40.528;44.712;2023-05-27T01:03:59;80524.16;;;7.25;68.04
62680;BME280;68213;40.528;44.712;2023-05-27T01:05:01;80532.00;;;7.25;68.11
62680;BME280;68213;40.528;44.712;2023-05-27T01:07:58;80517.91;;;7.30;67.65
62680;BME280;68213;40.528;44.712;2023-05-27T01:09:19;80531.94;;;7.35;67.32
62680;BME280;68213;40.528;44.712;2023-05-27T01:10:28;80519.44;;;7.33;67.36
62680;BME280;68213;40.528;44.712;2023-05-27T01:11:40;80523.00;;;7.38;67.07
62680;BME280;68213;40.528;44.712;2023-05-27T01:12:51;80520.25;;;7.36;67.39
62680;BME280;68213;40.528;44.712;2023-05-27T01:14:05;80524.38;;;7.39;67.21
62680;BME280;68213;40.528;44.712;2023-05-27T01:15:09;80523.22;;;7.42;66.85
62680;BME280;68213;40.528;44.712;2023-05-27T01:16:13;80519.38;;;7.43;67.03
62680;BME280;68213;40.528;44.712;2023-05-27T01:17:14;80524.59;;;7.43;67.12
62680;BME280;68213;40.528;44.712;2023-05-27T01:18:16;80502.94;;;7.30;67.12
62680;BME280;68213;40.528;44.712;2023-05-27T01:19:27;80520.66;;;7.32;68.28
62680;BME280;68213;40.528;44.712;2023-05-27T01:20:32;80516.56;;;7.29;67.83
62680;BME280;68213;40.528;44.712;2023-05-27T01:21:34;80518.53;;;7.19;68.76
62680;BME280;68213;40.528;44.712;2023-05-27T01:22:39;80531.19;;;7.22;69.28
62680;BME280;68213;40.528;44.712;2023-05-27T01:23:42;80531.03;;;7.20;68.63
62680;BME280;68213;40.528;44.712;2023-05-27T01:24:43;80532.41;;;7.21;68.33
62680;BME280;68213;40.528;44.712;2023-05-27T01:25:43;80534.66;;;7.15;69.48
62680;BME280;68213;40.528;44.712;2023-05-27T01:26:46;80527.91;;;7.12;69.31
62680;BME280;68213;40.528;44.712;2023-05-27T01:27:47;80530.28;;;7.08;69.53
62680;BME280;68213;40.528;44.712;2023-05-27T01:28:48;80534.13;;;7.07;69.88
62680;BME280;68213;40.528;44.712;2023-05-27T01:29:49;80530.78;;;6.85;70.95
62680;BME280;68213;40.528;44.712;2023-05-27T01:30:54;80534.63;;;6.83;70.92
62680;BME280;68213;40.528;44.712;2023-05-27T01:32:12;80531.59;;;6.87;70.24
62680;BME280;68213;40.528;44.712;2023-05-27T01:33:20;80528.97;;;6.87;70.23
62680;BME280;68213;40.528;44.712;2023-05-27T01:34:30;80534.59;;;6.93;70.45
62680;BME280;68213;40.528;44.712;2023-05-27T01:35:52;80532.13;;;6.95;70.10
62680;BME280;68213;40.528;44.712;2023-05-27T01:36:59;80533.91;;;6.93;70.34
62680;BME280;68213;40.528;44.712;2023-05-27T01:38:06;80541.31;;;6.96;70.27
62680;BME280;68213;40.528;44.712;2023-05-27T01:39:09;80529.22;;;6.91;70.41
62680;BME280;68213;40.528;44.712;2023-05-27T01:40:16;80529.94;;;6.92;70.46
62680;BME280;68213;40.528;44.712;2023-05-27T01:41:18;80533.91;;;6.93;70.40
62680;BME280;68213;40.528;44.712;2023-05-27T01:42:19;80534.75;;;6.95;70.54
62680;BME280;68213;40.528;44.712;2023-05-27T01:43:21;80534.75;;;6.95;70.40
62680;BME280;68213;40.528;44.712;2023-05-27T01:44:24;80527.28;;;7.02;69.82
62680;BME280;68213;40.528;44.712;2023-05-27T01:45:25;80524.66;;;7.02;69.88
62680;BME280;68213;40.528;44.712;2023-05-27T01:46:26;80533.03;;;7.10;69.95
62680;BME280;68213;40.528;44.712;2023-05-27T01:47:27;80520.94;;;7.05;69.63
62680;BME280;68213;40.528;44.712;2023-05-27T01:48:30;80536.03;;;7.16;69.78
62680;BME280;68213;40.528;44.712;2023-05-27T01:49:30;80532.41;;;7.21;68.81
62680;BME280;68213;40.528;44.712;2023-05-27T01:50:31;80530.50;;;7.22;69.71
62680;BME280;68213;40.528;44.712;2023-05-27T01:51:33;80529.94;;;7.23;69.92
62680;BME280;68213;40.528;44.712;2023-05-27T01:52:34;80527.31;;;7.23;69.92
62680;BME280;68213;40.528;44.712;2023-05-27T01:53:34;80532.28;;;7.19;69.60
62680;BME280;68213;40.528;44.712;2023-05-27T01:54:35;80529.81;;;7.21;69.72
62680;BME280;68213;40.528;44.712;2023-05-27T01:55:37;80536.66;;;7.26;69.02
62680;BME280;68213;40.528;44.712;2023-05-27T01:56:38;80532.41;;;7.21;70.16
62680;BME280;68213;40.528;44.712;2023-05-27T01:57:40;80533.38;;;7.26;69.61
62680;BME280;68213;40.528;44.712;2023-05-27T01:58:41;80532.25;;;7.29;69.55
62680;BME280;68213;40.528;44.712;2023-05-27T01:59:41;80538.31;;;7.32;70.08
62680;BME280;68213;40.528;44.712;2023-05-27T02:00:42;80533.75;;;7.32;70.34
62680;BME280;68213;40.528;44.712;2023-05-27T02:01:43;80535.94;;;7.36;69.37
62680;BME280;68213;40.528;44.712;2023-05-27T02:02:44;80525.59;;;7.38;68.14
62680;BME280;68213;40.528;44.712;2023-05-27T02:03:44;80541.16;;;7.36;70.74
62680;BME280;68213;40.528;44.712;2023-05-27T02:04:45;80539.63;;;7.42;70.04
62680;BME280;68213;40.528;44.712;2023-05-27T02:05:48;80536.00;;;7.47;68.50
62680;BME280;68213;40.528;44.712;2023-05-27T02:06:48;80542.31;;;7.54;68.58
62680;BME280;68213;40.528;44.712;2023-05-27T02:07:49;80541.81;;;7.46;70.95
62680;BME280;68213;40.528;44.712;2023-05-27T02:08:52;80535.34;;;7.47;71.06
62680;BME280;68213;40.528;44.712;2023-05-27T02:09:52;80535.56;;;7.51;70.77
62680;BME280;68213;40.528;44.712;2023-05-27T02:10:55;80539.69;;;7.54;70.52
62680;BME280;68213;40.528;44.712;2023-05-27T02:11:56;80531.03;;;7.52;69.63
62680;BME280;68213;40.528;44.712;2023-05-27T02:12:57;80537.69;;;7.65;68.97
62680;BME280;68213;40.528;44.712;2023-05-27T02:13:57;80544.44;;;7.68;69.91
62680;BME280;68213;40.528;44.712;2023-05-27T02:14:59;80541.63;;;7.75;68.86
62680;BME280;68213;40.528;44.712;2023-05-27T02:16:00;80535.53;;;7.83;69.27
62680;BME280;68213;40.528;44.712;2023-05-27T02:17:04;80541.84;;;7.89;68.12
62680;BME280;68213;40.528;44.712;2023-05-27T02:18:25;80541.97;;;7.91;69.29
62680;BME280;68213;40.528;44.712;2023-05-27T02:19:28;80545.94;;;7.92;69.11
62680;BME280;68213;40.528;44.712;2023-05-27T02:20:28;80544.94;;;7.98;67.98
62680;BME280;68213;40.528;44.712;2023-05-27T02:21:29;80554.53;;;8.05;67.38
62680;BME280;68213;40.528;44.712;2023-05-27T02:22:30;80552.84;;;8.09;67.45
62680;BME280;68213;40.528;44.712;2023-05-27T02:23:34;80551.19;;;8.14;67.97
62680;BME280;68213;40.528;44.712;2023-05-27T02:24:36;80547.41;;;8.17;67.74
62680;BME280;68213;40.528;44.712;2023-05-27T02:25:37;80548.13;;;8.18;67.71
62680;BME280;68213;40.528;44.712;2023-05-27T02:26:37;80558.16;;;8.21;68.24
62680;BME280;68213;40.528;44.712;2023-05-27T02:27:38;80557.16;;;8.26;68.34
62680;BME280;68213;40.528;44.712;2023-05-27T02:28:39;80552.84;;;8.31;67.84
62680;BME280;68213;40.528;44.712;2023-05-27T02:29:39;80552.41;;;8.35;68.00
62680;BME280;68213;40.528;44.712;2023-05-27T02:30:41;80554.00;;;8.40;67.56
62680;BME280;68213;40.528;44.712;2023-05-27T02:31:42;80549.69;;;8.45;69.43
62680;BME280;68213;40.528;44.712;2023-05-27T02:32:43;80547.34;;;8.49;67.16
62680;BME280;68213;40.528;44.712;2023-05-27T02:33:44;80551.59;;;8.54;68.03
62680;BME280;68213;40.528;44.712;2023-05-27T02:34:44;80545.91;;;8.57;68.50
62680;BME280;68213;40.528;44.712;2023-05-27T02:35:45;80555.22;;;8.61;69.64
62680;BME280;68213;40.528;44.712;2023-05-27T02:36:46;80554.78;;;8.64;69.26
62680;BME280;68213;40.528;44.712;2023-05-27T02:37:47;80556.16;;;8.65;69.81
62680;BME280;68213;40.528;44.712;2023-05-27T02:38:47;80554.78;;;8.64;70.50
62680;BME280;68213;40.528;44.712;2023-05-27T02:39:48;80559.47;;;8.66;70.29
62680;BME280;68213;40.528;44.712;2023-05-27T02:40:49;80554.88;;;8.54;71.34
62680;BME280;68213;40.528;44.712;2023-05-27T02:41:49;80556.13;;;8.53;71.24
62680;BME280;68213;40.528;44.712;2023-05-27T02:42:51;80540.19;;;8.49;70.12
62680;BME280;68213;40.528;44.712;2023-05-27T02:43:54;80555.00;;;8.56;70.39
62680;BME280;68213;40.528;44.712;2023-05-27T02:44:55;80553.88;;;8.60;70.49
62680;BME280;68213;40.528;44.712;2023-05-27T02:45:56;80552.75;;;8.63;70.66
62680;BME280;68213;40.528;44.712;2023-05-27T02:46:57;80548.88;;;8.64;70.84
62680;BME280;68213;40.528;44.712;2023-05-27T02:47:57;80553.00;;;8.67;70.57
62680;BME280;68213;40.528;44.712;2023-05-27T02:49:01;80549.22;;;8.70;69.09
62680;BME280;68213;40.528;44.712;2023-05-27T02:50:02;80551.41;;;8.73;69.92
62680;BME280;68213;40.528;44.712;2023-05-27T02:51:04;80550.28;;;8.77;70.72
62680;BME280;68213;40.528;44.712;2023-05-27T02:52:05;80556.31;;;8.79;69.37
62680;BME280;68213;40.528;44.712;2023-05-27T02:53:06;80548.59;;;8.81;68.47
62680;BME280;68213;40.528;44.712;2023-05-27T02:54:06;80550.06;;;8.84;68.16
62680;BME280;68213;40.528;44.712;2023-05-27T02:55:07;80553.59;;;8.89;68.32
62680;BME280;68213;40.528;44.712;2023-05-27T02:56:08;80547.91;;;8.93;68.15
62680;BME280;68213;40.528;44.712;2023-05-27T02:57:10;80552.13;;;8.98;68.13
62680;BME280;68213;40.528;44.712;2023-05-27T02:58:13;80554.44;;;9.03;68.01
62680;BME280;68213;40.528;44.712;2023-05-27T02:59:13;80544.75;;;9.06;67.91
62680;BME280;68213;40.528;44.712;2023-05-27T03:00:14;80547.38;;;9.06;67.96
62680;BME280;68213;40.528;44.712;2023-05-27T03:01:17;80543.81;;;9.01;68.61
62680;BME280;68213;40.528;44.712;2023-05-27T03:02:20;80547.38;;;9.06;67.51
62680;BME280;68213;40.528;44.712;2023-05-27T03:03:21;80544.41;;;9.12;66.62
62680;BME280;68213;40.528;44.712;2023-05-27T03:05:35;80546.47;;;9.25;65.53
62680;BME280;68213;40.528;44.712;2023-05-27T03:06:38;80541.03;;;9.33;65.42
62680;BME280;68213;40.528;44.712;2023-05-27T03:07:39;80546.63;;;9.39;64.40
62680;BME280;68213;40.528;44.712;2023-05-27T03:08:41;80543.06;;;9.46;62.52
62680;BME280;68213;40.528;44.712;2023-05-27T03:09:42;80540.22;;;9.54;62.48
62680;BME280;68213;40.528;44.712;2023-05-27T03:10:42;80546.50;;;9.61;63.54
62680;BME280;68213;40.528;44.712;2023-05-27T03:11:43;80545.38;;;9.64;64.40
62680;BME280;68213;40.528;44.712;2023-05-27T03:12:46;80543.75;;;9.59;64.88
62680;BME280;68213;40.528;44.712;2023-05-27T03:13:47;80539.66;;;9.56;65.93
62680;BME280;68213;40.528;44.712;2023-05-27T03:14:47;80542.03;;;9.51;65.78
62680;BME280;68213;40.528;44.712;2023-05-27T03:15:50;80542.97;;;9.44;65.18
62680;BME280;68213;40.528;44.712;2023-05-27T03:16:51;80547.66;;;9.34;65.86
62680;BME280;68213;40.528;44.712;2023-05-27T03:17:51;80551.28;;;9.29;65.67
62680;BME280;68213;40.528;44.712;2023-05-27T03:18:52;80548.09;;;9.30;65.54
62680;BME280;68213;40.528;44.712;2023-05-27T03:19:53;80549.56;;;9.33;65.53
62680;BME280;68213;40.528;44.712;2023-05-27T03:20:53;80546.28;;;9.33;64.92
62680;BME280;68213;40.528;44.712;2023-05-27T03:21:54;80550.25;;;9.34;65.00
62680;BME280;68213;40.528;44.712;2023-05-27T03:22:58;80552.88;;;9.34;65.06
62680;BME280;68213;40.528;44.712;2023-05-27T03:23:59;80546.94;;;9.33;65.56
62680;BME280;68213;40.528;44.712;2023-05-27T03:24:59;80553.09;;;9.38;65.28
62680;BME280;68213;40.528;44.712;2023-05-27T03:26:00;80553.09;;;9.38;64.43
62680;BME280;68213;40.528;44.712;2023-05-27T03:27:01;80556.41;;;9.39;64.72
62680;BME280;68213;40.528;44.712;2023-05-27T03:28:01;80559.84;;;9.41;64.39
62680;BME280;68213;40.528;44.712;2023-05-27T03:29:02;80548.91;;;9.45;64.41
62680;BME280;68213;40.528;44.712;2023-05-27T03:30:04;80538.28;;;9.43;64.52
62680;BME280;68213;40.528;44.712;2023-05-27T03:31:06;80544.78;;;9.53;64.64
62680;BME280;68213;40.528;44.712;2023-05-27T03:32:07;80546.38;;;9.59;64.82
62680;BME280;68213;40.528;44.712;2023-05-27T03:33:07;80554.59;;;9.65;64.91
62680;BME280;68213;40.528;44.712;2023-05-27T03:34:08;80543.75;;;9.71;64.61
62680;BME280;68213;40.528;44.712;2023-05-27T03:35:09;80550.59;;;9.76;64.63
62680;BME280;68213;40.528;44.712;2023-05-27T03:36:10;80551.50;;;9.80;64.37
62680;BME280;68213;40.528;44.712;2023-05-27T03:37:10;80543.97;;;9.87;64.18
62680;BME280;68213;40.528;44.712;2023-05-27T03:38:11;80547.16;;;9.97;64.02
62680;BME280;68213;40.528;44.712;2023-05-27T03:39:12;80548.75;;;10.02;64.09
62680;BME280;68213;40.528;44.712;2023-05-27T03:40:13;80546.81;;;10.03;63.55
62680;BME280;68213;40.528;44.712;2023-05-27T03:41:14;80546.56;;;10.10;63.50
62680;BME280;68213;40.528;44.712;2023-05-27T03:42:14;80545.53;;;10.15;62.93
62680;BME280;68213;40.528;44.712;2023-05-27T03:43:15;80545.97;;;10.24;62.86
62680;BME280;68213;40.528;44.712;2023-05-27T03:44:16;80551.66;;;10.32;62.31
62680;BME280;68213;40.528;44.712;2023-05-27T03:45:16;80544.81;;;10.39;62.19
62680;BME280;68213;40.528;44.712;2023-05-27T03:46:17;80546.50;;;10.46;61.58
62680;BME280;68213;40.528;44.712;2023-05-27T03:47:18;80549.91;;;10.48;62.30
62680;BME280;68213;40.528;44.712;2023-05-27T03:48:20;80551.63;;;10.56;61.95
62680;BME280;68213;40.528;44.712;2023-05-27T03:49:21;80547.97;;;10.61;62.28
62680;BME280;68213;40.528;44.712;2023-05-27T03:50:22;80552.28;;;10.68;62.61
62680;BME280;68213;40.528;44.712;2023-05-27T03:51:22;80547.09;;;10.70;62.11
62680;BME280;68213;40.528;44.712;2023-05-27T03:52:23;80546.75;;;10.76;61.76
62680;BME280;68213;40.528;44.712;2023-05-27T03:53:24;80545.03;;;10.81;61.29
62680;BME280;68213;40.528;44.712;2023-05-27T03:54:24;80549.03;;;10.82;61.09
62680;BME280;68213;40.528;44.712;2023-05-27T03:55:25;80549.09;;;10.84;60.65
62680;BME280;68213;40.528;44.712;2023-05-27T03:56:26;80553.34;;;10.89;58.27
62680;BME280;68213;40.528;44.712;2023-05-27T03:57:27;80556.28;;;10.95;57.29
62680;BME280;68213;40.528;44.712;2023-05-27T03:58:27;80557.19;;;11.00;57.45
62680;BME280;68213;40.528;44.712;2023-05-27T03:59:29;80542.44;;;10.94;57.06
62680;BME280;68213;40.528;44.712;2023-05-27T04:00:29;80550.59;;;11.13;56.80
62680;BME280;68213;40.528;44.712;2023-05-27T04:01:31;80540.91;;;11.03;56.55
62680;BME280;68213;40.528;44.712;2023-05-27T04:02:31;80554.31;;;11.21;56.52
62680;BME280;68213;40.528;44.712;2023-05-27T04:03:32;80553.94;;;11.27;56.92
62680;BME280;68213;40.528;44.712;2023-05-27T04:04:32;80558.03;;;11.30;56.26
62680;BME280;68213;40.528;44.712;2023-05-27T04:05:34;80541.94;;;11.24;55.70
62680;BME280;68213;40.528;44.712;2023-05-27T04:06:36;80557.69;;;11.36;55.26
62680;BME280;68213;40.528;44.712;2023-05-27T04:07:37;80554.66;;;11.41;55.44
62680;BME280;68213;40.528;44.712;2023-05-27T04:09:49;80552.94;;;11.46;54.81
62680;BME280;68213;40.528;44.712;2023-05-27T04:10:50;80547.44;;;11.42;55.64
62680;BME280;68213;40.528;44.712;2023-05-27T04:11:53;80546.59;;;11.51;54.79
62680;BME280;68213;40.528;44.712;2023-05-27T04:12:53;80546.78;;;11.55;54.77
62680;BME280;68213;40.528;44.712;2023-05-27T04:13:54;80555.69;;;11.62;54.78
62680;BME280;68213;40.528;44.712;2023-05-27T04:14:55;80543.31;;;11.65;54.69
62680;BME280;68213;40.528;44.712;2023-05-27T04:15:56;80544.84;;;11.70;54.65
62680;BME280;68213;40.528;44.712;2023-05-27T04:17:00;80548.38;;;11.74;54.36
62680;BME280;68213;40.528;44.712;2023-05-27T04:18:00;80548.69;;;11.81;54.58
62680;BME280;68213;40.528;44.712;2023-05-27T04:19:01;80545.38;;;11.80;54.71
62680;BME280;68213;40.528;44.712;2023-05-27T04:20:02;80543.81;;;11.89;54.46
62680;BME280;68213;40.528;44.712;2023-05-27T04:21:13;80549.38;;;11.95;55.66
62680;BME280;68213;40.528;44.712;2023-05-27T04:22:14;80548.03;;;11.94;57.93
62680;BME280;68213;40.528;44.712;2023-05-27T04:23:15;80523.63;;;11.80;59.90
62680;BME280;68213;40.528;44.712;2023-05-27T04:24:16;80547.16;;;12.03;60.05
62680;BME280;68213;40.528;44.712;2023-05-27T04:25:16;80554.63;;;11.95;62.48
62680;BME280;68213;40.528;44.712;2023-05-27T04:26:17;80557.28;;;11.95;61.19
62680;BME280;68213;40.528;44.712;2023-05-27T04:27:18;80554.19;;;11.99;58.46
62680;BME280;68213;40.528;44.712;2023-05-27T04:28:22;80561.63;;;12.02;55.84
62680;BME280;68213;40.528;44.712;2023-05-27T04:29:23;80551.84;;;12.05;56.45
62680;BME280;68213;40.528;44.712;2023-05-27T04:30:23;80551.84;;;12.05;54.67
62680;BME280;68213;40.528;44.712;2023-05-27T04:31:24;80548.13;;;12.10;54.12
62680;BME280;68213;40.528;44.712;2023-05-27T04:32:28;80549.81;;;12.17;55.50
62680;BME280;68213;40.528;44.712;2023-05-27T04:33:32;80549.13;;;12.17;55.57
62680;BME280;68213;40.528;44.712;2023-05-27T04:34:33;80555.94;;;12.22;55.24
62680;BME280;68213;40.528;44.712;2023-05-27T04:35:34;80554.88;;;12.27;58.61
62680;BME280;68213;40.528;44.712;2023-05-27T04:36:35;80553.69;;;12.16;59.96
62680;BME280;68213;40.528;44.712;2023-05-27T04:37:36;80553.91;;;12.20;60.26
62680;BME280;68213;40.528;44.712;2023-05-27T04:38:37;80554.75;;;12.25;56.08
62680;BME280;68213;40.528;44.712;2023-05-27T04:39:37;80549.50;;;12.25;55.60
62680;BME280;68213;40.528;44.712;2023-05-27T04:40:45;80553.00;;;12.30;55.42
62680;BME280;68213;40.528;44.712;2023-05-27T04:41:46;80555.84;;;12.34;55.75
62680;BME280;68213;40.528;44.712;2023-05-27T04:42:47;80558.66;;;12.38;58.71
62680;BME280;68213;40.528;44.712;2023-05-27T04:43:47;80560.63;;;12.37;58.72
62680;BME280;68213;40.528;44.712;2023-05-27T04:44:48;80556.25;;;12.42;57.61
62680;BME280;68213;40.528;44.712;2023-05-27T04:45:49;80554.47;;;12.47;58.24
62680;BME280;68213;40.528;44.712;2023-05-27T04:46:52;80553.19;;;12.48;54.27
62680;BME280;68213;40.528;44.712;2023-05-27T04:47:55;80542.84;;;12.52;56.48
62680;BME280;68213;40.528;44.712;2023-05-27T04:48:56;80552.41;;;12.59;55.20
62680;BME280;68213;40.528;44.712;2023-05-27T04:49:56;80548.88;;;12.68;54.65
62680;BME280;68213;40.528;44.712;2023-05-27T04:50:57;80547.97;;;12.78;54.78
62680;BME280;68213;40.528;44.712;2023-05-27T04:51:58;80548.25;;;12.84;55.12
62680;BME280;68213;40.528;44.712;2023-05-27T04:53:00;80554.38;;;12.89;53.89
62680;BME280;68213;40.528;44.712;2023-05-27T04:54:01;80545.69;;;12.86;52.82
62680;BME280;68213;40.528;44.712;2023-05-27T04:55:04;80545.03;;;12.85;52.60
62680;BME280;68213;40.528;44.712;2023-05-27T04:56:05;80545.91;;;12.90;52.63
62680;BME280;68213;40.528;44.712;2023-05-27T04:57:13;80548.53;;;12.90;52.24
62680;BME280;68213;40.528;44.712;2023-05-27T04:58:19;80546.56;;;12.91;52.04
62680;BME280;68213;40.528;44.712;2023-05-27T04:59:23;80550.19;;;12.97;52.18
62680;BME280;68213;40.528;44.712;2023-05-27T05:00:30;80548.13;;;12.96;51.47
62680;BME280;68213;40.528;44.712;2023-05-27T05:01:39;80546.47;;;12.89;50.21
62680;BME280;68213;40.528;44.712;2023-05-27T05:02:59;80547.28;;;12.91;49.44
62680;BME280;68213;40.528;44.712;2023-05-27T05:04:01;80552.81;;;12.97;49.39
62680;BME280;68213;40.528;44.712;2023-05-27T05:05:14;80543.63;;;12.98;50.34
62680;BME280;68213;40.528;44.712;2023-05-27T05:06:15;80550.56;;;13.06;50.26
62680;BME280;68213;40.528;44.712;2023-05-27T05:07:16;80548.19;;;13.12;50.34
62680;BME280;68213;40.528;44.712;2023-05-27T05:08:20;80542.91;;;13.12;51.46
62680;BME280;68213;40.528;44.712;2023-05-27T05:09:21;80551.50;;;13.12;50.28
62680;BME280;68213;40.528;44.712;2023-05-27T05:10:22;80553.63;;;13.16;50.94
62680;BME280;68213;40.528;44.712;2023-05-27T05:11:23;80547.28;;;13.21;50.91
62680;BME280;68213;40.528;44.712;2023-05-27T05:12:24;80556.47;;;13.20;51.07
62680;BME280;68213;40.528;44.712;2023-05-27T05:13:26;80551.47;;;13.26;49.71
62680;BME280;68213;40.528;44.712;2023-05-27T05:14:29;80549.41;;;13.25;48.46
62680;BME280;68213;40.528;44.712;2023-05-27T05:15:29;80553.91;;;13.22;48.39
62680;BME280;68213;40.528;44.712;2023-05-27T05:16:31;80556.38;;;13.18;48.79
62680;BME280;68213;40.528;44.712;2023-05-27T05:17:32;80551.47;;;13.26;49.26
62680;BME280;68213;40.528;44.712;2023-05-27T05:18:32;80549.75;;;13.33;51.40
62680;BME280;68213;40.528;44.712;2023-05-27T05:19:33;80551.84;;;13.21;48.36
62680;BME280;68213;40.528;44.712;2023-05-27T05:20:34;80555.19;;;13.21;47.88
62680;BME280;68213;40.528;44.712;2023-05-27T05:21:37;80554.50;;;13.21;47.94
62680;BME280;68213;40.528;44.712;2023-05-27T05:22:37;80543.34;;;13.22;48.78
62680;BME280;68213;40.528;44.712;2023-05-27T05:23:40;80559.19;;;13.22;48.44
62680;BME280;68213;40.528;44.712;2023-05-27T05:24:41;80541.91;;;13.19;48.22
62680;BME280;68213;40.528;44.712;2023-05-27T05:25:42;80544.63;;;13.21;48.40
62680;BME280;68213;40.528;44.712;2023-05-27T05:26:43;80543.03;;;13.30;48.11
62680;BME280;68213;40.528;44.712;2023-05-27T05:27:44;80551.88;;;13.37;48.88
62680;BME280;68213;40.528;44.712;2023-05-27T05:28:45;80548.09;;;13.40;49.10
62680;BME280;68213;40.528;44.712;2023-05-27T05:29:46;80540.94;;;13.42;49.48
62680;BME280;68213;40.528;44.712;2023-05-27T05:30:48;80542.03;;;13.37;48.44
62680;BME280;68213;40.528;44.712;2023-05-27T05:31:49;80549.75;;;13.33;47.90